sensor_id;sensor_type;location;lat;lon;timestamp;P1;durP1;ratioP1;P2;durP2;ratioP2
4309;SDS011;2168;53.576;9.980;2024-02-23T00:00:53;0.50;;;0.50;;
4309;SDS011;2168;53.576;9.980;2024-02-23T00:03:19;0.60;;;0.60;;
4309;SDS011;2168;53.576;9.980;2024-02-23T00:05:44;0.50;;;0.50;;
4309;SDS011;2168;53.576;9.980;2024-02-23T00:08:09;0.50;;;0.50;;
4309;SDS011;2168;53.576;9.980;2024-02-23T00:10:35;0.50;;;0.50;;
4309;SDS011;2168;53.576;9.980;2024-02-23T00:13:00;0.50;;;0.50;;
4309;SDS011;2168;53.576;9.980;2024-02-23T00:15:26;0.40;;;0.40;;
4309;SDS011;2168;53.576;9.980;2024-02-23T00:17:51;0.40;;;0.40;;
4309;SDS011;2168;53.576;9.980;2024-02-23T00:20:16;0.50;;;0.50;;
4309;SDS011;2168;53.576;9.980;2024-02-23T00:22:42;0.40;;;0.40;;
4309;SDS011;2168;53.576;9.980;2024-02-23T00:25:07;0.40;;;0.40;;
4309;SDS011;2168;53.576;9.980;2024-02-23T00:27:32;0.33;;;0.33;;
4309;SDS011;2168;53.576;9.980;2024-02-23T00:29:58;0.43;;;0.43;;
4309;SDS011;2168;53.576;9.980;2024-02-23T00:32:23;0.40;;;0.40;;
4309;SDS011;2168;53.576;9.980;2024-02-23T00:34:48;0.40;;;0.40;;
4309;SDS011;2168;53.576;9.980;2024-02-23T00:37:14;0.40;;;0.40;;
4309;SDS011;2168;53.576;9.980;2024-02-23T00:39:40;0.40;;;0.40;;
4309;SDS011;2168;53.576;9.980;2024-02-23T00:42:05;0.40;;;0.40;;
4309;SDS011;2168;53.576;9.980;2024-02-23T00:44:30;0.40;;;0.40;;
4309;SDS011;2168;53.576;9.980;2024-02-23T00:46:56;0.40;;;0.40;;
4309;SDS011;2168;53.576;9.980;2024-02-23T00:49:26;0.40;;;0.40;;
4309;SDS011;2168;53.576;9.980;2024-02-23T00:51:51;0.40;;;0.40;;
4309;SDS011;2168;53.576;9.980;2024-02-23T00:54:16;0.30;;;0.30;;
4309;SDS011;2168;53.576;9.980;2024-02-23T00:56:41;0.30;;;0.30;;
4309;SDS011;2168;53.576;9.980;2024-02-23T00:59:06;0.20;;;0.20;;
4309;SDS011;2168;53.576;9.980;2024-02-23T01:01:32;0.30;;;0.30;;
4309;SDS011;2168;53.576;9.980;2024-02-23T01:03:57;0.20;;;0.20;;
4309;SDS011;2168;53.576;9.980;2024-02-23T01:06:23;0.20;;;0.20;;
4309;SDS011;2168;53.576;9.980;2024-02-23T01:08:49;0.20;;;0.20;;
4309;SDS011;2168;53.576;9.980;2024-02-23T01:11:14;0.20;;;0.20;;
4309;SDS011;2168;53.576;9.980;2024-02-23T01:13:40;0.30;;;0.30;;
4309;SDS011;2168;53.576;9.980;2024-02-23T01:16:05;0.20;;;0.20;;
4309;SDS011;2168;53.576;9.980;2024-02-23T01:18:31;0.20;;;0.20;;
4309;SDS011;2168;53.576;9.980;2024-02-23T01:20:56;0.20;;;0.20;;
4309;SDS011;2168;53.576;9.980;2024-02-23T01:23:22;0.20;;;0.20;;
4309;SDS011;2168;53.576;9.980;2024-02-23T01:25:53;0.20;;;0.20;;
4309;SDS011;2168;53.576;9.980;2024-02-23T01:28:18;0.20;;;0.20;;
4309;SDS011;2168;53.576;9.980;2024-02-23T01:30:43;0.20;;;0.20;;
4309;SDS011;2168;53.576;9.980;2024-02-23T01:33:09;0.20;;;0.20;;
4309;SDS011;2168;53.576;9.980;2024-02-23T01:35:34;0.20;;;0.20;;
4309;SDS011;2168;53.576;9.980;2024-02-23T01:37:59;0.20;;;0.20;;
4309;SDS011;2168;53.576;9.980;2024-02-23T01:40:24;0.20;;;0.20;;
4309;SDS011;2168;53.576;9.980;2024-02-23T01:42:59;0.20;;;0.20;;
4309;SDS011;2168;53.576;9.980;2024-02-23T01:45:24;0.20;;;0.20;;
4309;SDS011;2168;53.576;9.980;2024-02-23T01:47:50;0.20;;;0.20;;
4309;SDS011;2168;53.576;9.980;2024-02-23T01:50:15;0.20;;;0.20;;
4309;SDS011;2168;53.576;9.980;2024-02-23T01:52:40;0.20;;;0.20;;
4309;SDS011;2168;53.576;9.980;2024-02-23T01:55:05;0.20;;;0.20;;
4309;SDS011;2168;53.576;9.980;2024-02-23T01:57:31;0.20;;;0.20;;
4309;SDS011;2168;53.576;9.980;2024-02-23T01:59:59;0.20;;;0.20;;
4309;SDS011;2168;53.576;9.980;2024-02-23T02:02:24;0.20;;;0.20;;
4309;SDS011;2168;53.576;9.980;2024-02-23T02:04:49;0.20;;;0.20;;
4309;SDS011;2168;53.576;9.980;2024-02-23T02:07:14;0.17;;;0.17;;
4309;SDS011;2168;53.576;9.980;2024-02-23T02:09:40;0.20;;;0.20;;
4309;SDS011;2168;53.576;9.980;2024-02-23T02:12:05;0.30;;;0.30;;
4309;SDS011;2168;53.576;9.980;2024-02-23T02:14:30;0.20;;;0.20;;
4309;SDS011;2168;53.576;9.980;2024-02-23T02:16:56;0.20;;;0.20;;
4309;SDS011;2168;53.576;9.980;2024-02-23T02:19:21;0.20;;;0.20;;
4309;SDS011;2168;53.576;9.980;2024-02-23T02:21:47;0.20;;;0.20;;
4309;SDS011;2168;53.576;9.980;2024-02-23T02:24:12;0.20;;;0.20;;
4309;SDS011;2168;53.576;9.980;2024-02-23T02:26:37;0.20;;;0.20;;
4309;SDS011;2168;53.576;9.980;2024-02-23T02:29:03;0.20;;;0.20;;
4309;SDS011;2168;53.576;9.980;2024-02-23T02:31:28;0.20;;;0.20;;
4309;SDS011;2168;53.576;9.980;2024-02-23T02:33:54;0.23;;;0.23;;
4309;SDS011;2168;53.576;9.980;2024-02-23T02:36:19;0.20;;;0.20;;
4309;SDS011;2168;53.576;9.980;2024-02-23T02:38:44;0.30;;;0.30;;
4309;SDS011;2168;53.576;9.980;2024-02-23T02:41:09;0.30;;;0.30;;
4309;SDS011;2168;53.576;9.980;2024-02-23T02:43:35;0.20;;;0.20;;
4309;SDS011;2168;53.576;9.980;2024-02-23T02:46:00;0.10;;;0.10;;
4309;SDS011;2168;53.576;9.980;2024-02-23T02:48:25;0.20;;;0.20;;
4309;SDS011;2168;53.576;9.980;2024-02-23T02:50:51;0.20;;;0.20;;
4309;SDS011;2168;53.576;9.980;2024-02-23T02:53:16;0.10;;;0.10;;
4309;SDS011;2168;53.576;9.980;2024-02-23T02:55:54;0.20;;;0.20;;
4309;SDS011;2168;53.576;9.980;2024-02-23T02:58:19;0.17;;;0.17;;
4309;SDS011;2168;53.576;9.980;2024-02-23T03:00:44;0.10;;;0.10;;
4309;SDS011;2168;53.576;9.980;2024-02-23T03:03:09;0.20;;;0.20;;
4309;SDS011;2168;53.576;9.980;2024-02-23T03:05:34;0.20;;;0.20;;
4309;SDS011;2168;53.576;9.980;2024-02-23T03:08:00;0.20;;;0.20;;
4309;SDS011;2168;53.576;9.980;2024-02-23T03:10:25;0.10;;;0.10;;
4309;SDS011;2168;53.576;9.980;2024-02-23T03:12:50;0.10;;;0.10;;
4309;SDS011;2168;53.576;9.980;2024-02-23T03:15:15;0.17;;;0.17;;
4309;SDS011;2168;53.576;9.980;2024-02-23T03:17:41;0.10;;;0.10;;
4309;SDS011;2168;53.576;9.980;2024-02-23T03:20:06;0.20;;;0.20;;
4309;SDS011;2168;53.576;9.980;2024-02-23T03:22:34;0.20;;;0.20;;
4309;SDS011;2168;53.576;9.980;2024-02-23T03:24:59;0.20;;;0.20;;
4309;SDS011;2168;53.576;9.980;2024-02-23T03:27:27;0.20;;;0.20;;
4309;SDS011;2168;53.576;9.980;2024-02-23T03:29:53;0.20;;;0.20;;
4309;SDS011;2168;53.576;9.980;2024-02-23T03:32:18;0.20;;;0.20;;
4309;SDS011;2168;53.576;9.980;2024-02-23T03:34:44;0.20;;;0.20;;
4309;SDS011;2168;53.576;9.980;2024-02-23T03:37:09;0.20;;;0.20;;
4309;SDS011;2168;53.576;9.980;2024-02-23T03:39:34;0.20;;;0.20;;
4309;SDS011;2168;53.576;9.980;2024-02-23T03:42:01;0.20;;;0.20;;
4309;SDS011;2168;53.576;9.980;2024-02-23T03:44:27;0.20;;;0.20;;
4309;SDS011;2168;53.576;9.980;2024-02-23T03:46:52;0.10;;;0.10;;
4309;SDS011;2168;53.576;9.980;2024-02-23T03:49:17;0.20;;;0.20;;
4309;SDS011;2168;53.576;9.980;2024-02-23T03:51:42;0.20;;;0.20;;
4309;SDS011;2168;53.576;9.980;2024-02-23T03:54:07;0.20;;;0.20;;
4309;SDS011;2168;53.576;9.980;2024-02-23T03:56:41;0.20;;;0.20;;
4309;SDS011;2168;53.576;9.980;2024-02-23T03:59:07;0.10;;;0.10;;
4309;SDS011;2168;53.576;9.980;2024-02-23T04:01:34;0.20;;;0.20;;
4309;SDS011;2168;53.576;9.980;2024-02-23T04:03:59;0.20;;;0.20;;
4309;SDS011;2168;53.576;9.980;2024-02-23T04:06:25;0.30;;;0.30;;
4309;SDS011;2168;53.576;9.980;2024-02-23T04:08:50;0.20;;;0.20;;
4309;SDS011;2168;53.576;9.980;2024-02-23T04:11:15;0.20;;;0.20;;
4309;SDS011;2168;53.576;9.980;2024-02-23T04:13:41;0.20;;;0.20;;
4309;SDS011;2168;53.576;9.980;2024-02-23T04:16:06;0.20;;;0.20;;
4309;SDS011;2168;53.576;9.980;2024-02-23T04:18:31;0.20;;;0.20;;
4309;SDS011;2168;53.576;9.980;2024-02-23T04:20:57;0.20;;;0.20;;
4309;SDS011;2168;53.576;9.980;2024-02-23T04:23:22;0.10;;;0.10;;
4309;SDS011;2168;53.576;9.980;2024-02-23T04:25:47;0.20;;;0.20;;
4309;SDS011;2168;53.576;9.980;2024-02-23T04:28:12;0.20;;;0.20;;
4309;SDS011;2168;53.576;9.980;2024-02-23T04:30:38;0.20;;;0.20;;
4309;SDS011;2168;53.576;9.980;2024-02-23T04:33:03;0.20;;;0.20;;
4309;SDS011;2168;53.576;9.980;2024-02-23T04:35:28;0.20;;;0.20;;
4309;SDS011;2168;53.576;9.980;2024-02-23T04:37:53;0.20;;;0.20;;
4309;SDS011;2168;53.576;9.980;2024-02-23T04:40:18;0.13;;;0.13;;
4309;SDS011;2168;53.576;9.980;2024-02-23T04:42:44;0.13;;;0.13;;
4309;SDS011;2168;53.576;9.980;2024-02-23T04:45:10;0.10;;;0.10;;
4309;SDS011;2168;53.576;9.980;2024-02-23T04:47:36;0.20;;;0.20;;
4309;SDS011;2168;53.576;9.980;2024-02-23T04:50:01;0.10;;;0.10;;
4309;SDS011;2168;53.576;9.980;2024-02-23T04:52:28;0.13;;;0.13;;
4309;SDS011;2168;53.576;9.980;2024-02-23T04:54:53;0.20;;;0.20;;
4309;SDS011;2168;53.576;9.980;2024-02-23T04:57:19;0.10;;;0.10;;
4309;SDS011;2168;53.576;9.980;2024-02-23T04:59:44;0.20;;;0.20;;
4309;SDS011;2168;53.576;9.980;2024-02-23T05:02:12;0.20;;;0.20;;
4309;SDS011;2168;53.576;9.980;2024-02-23T05:04:38;0.20;;;0.20;;
4309;SDS011;2168;53.576;9.980;2024-02-23T05:07:03;0.20;;;0.20;;
4309;SDS011;2168;53.576;9.980;2024-02-23T05:09:28;0.10;;;0.10;;
4309;SDS011;2168;53.576;9.980;2024-02-23T05:11:54;0.10;;;0.10;;
4309;SDS011;2168;53.576;9.980;2024-02-23T05:14:19;0.20;;;0.20;;
4309;SDS011;2168;53.576;9.980;2024-02-23T05:16:44;0.20;;;0.20;;
4309;SDS011;2168;53.576;9.980;2024-02-23T05:19:09;0.20;;;0.20;;
4309;SDS011;2168;53.576;9.980;2024-02-23T05:21:35;0.10;;;0.10;;
4309;SDS011;2168;53.576;9.980;2024-02-23T05:24:00;0.10;;;0.10;;
4309;SDS011;2168;53.576;9.980;2024-02-23T05:26:25;0.10;;;0.10;;
4309;SDS011;2168;53.576;9.980;2024-02-23T05:28:50;0.20;;;0.20;;
4309;SDS011;2168;53.576;9.980;2024-02-23T05:31:17;0.30;;;0.30;;
4309;SDS011;2168;53.576;9.980;2024-02-23T05:33:42;0.13;;;0.13;;
4309;SDS011;2168;53.576;9.980;2024-02-23T05:36:07;0.10;;;0.10;;
4309;SDS011;2168;53.576;9.980;2024-02-23T05:38:33;0.13;;;0.13;;
4309;SDS011;2168;53.576;9.980;2024-02-23T05:40:58;0.10;;;0.10;;
4309;SDS011;2168;53.576;9.980;2024-02-23T05:43:23;0.20;;;0.20;;
4309;SDS011;2168;53.576;9.980;2024-02-23T05:45:48;0.30;;;0.30;;
4309;SDS011;2168;53.576;9.980;2024-02-23T05:48:14;0.20;;;0.20;;
4309;SDS011;2168;53.576;9.980;2024-02-23T05:50:39;0.20;;;0.20;;
4309;SDS011;2168;53.576;9.980;2024-02-23T05:53:05;0.10;;;0.10;;
4309;SDS011;2168;53.576;9.980;2024-02-23T05:55:30;0.20;;;0.20;;
4309;SDS011;2168;53.576;9.980;2024-02-23T05:57:55;0.40;;;0.40;;
4309;SDS011;2168;53.576;9.980;2024-02-23T06:00:21;0.20;;;0.20;;
4309;SDS011;2168;53.576;9.980;2024-02-23T06:02:46;0.10;;;0.10;;
4309;SDS011;2168;53.576;9.980;2024-02-23T06:05:12;0.20;;;0.20;;
4309;SDS011;2168;53.576;9.980;2024-02-23T06:07:37;0.30;;;0.30;;
4309;SDS011;2168;53.576;9.980;2024-02-23T06:10:02;0.23;;;0.23;;
4309;SDS011;2168;53.576;9.980;2024-02-23T06:12:28;0.20;;;0.20;;
4309;SDS011;2168;53.576;9.980;2024-02-23T06:14:53;0.20;;;0.20;;
4309;SDS011;2168;53.576;9.980;2024-02-23T06:17:20;0.20;;;0.20;;
4309;SDS011;2168;53.576;9.980;2024-02-23T06:19:45;0.10;;;0.10;;
4309;SDS011;2168;53.576;9.980;2024-02-23T06:22:11;0.20;;;0.20;;
4309;SDS011;2168;53.576;9.980;2024-02-23T06:24:37;0.20;;;0.20;;
4309;SDS011;2168;53.576;9.980;2024-02-23T06:27:02;0.23;;;0.23;;
4309;SDS011;2168;53.576;9.980;2024-02-23T06:29:28;0.30;;;0.30;;
4309;SDS011;2168;53.576;9.980;2024-02-23T06:31:53;0.20;;;0.20;;
4309;SDS011;2168;53.576;9.980;2024-02-23T06:34:18;0.27;;;0.27;;
4309;SDS011;2168;53.576;9.980;2024-02-23T06:36:44;0.20;;;0.20;;
4309;SDS011;2168;53.576;9.980;2024-02-23T06:39:09;0.30;;;0.30;;
4309;SDS011;2168;53.576;9.980;2024-02-23T06:41:34;0.20;;;0.20;;
4309;SDS011;2168;53.576;9.980;2024-02-23T06:43:59;0.30;;;0.30;;
4309;SDS011;2168;53.576;9.980;2024-02-23T06:46:25;0.70;;;0.70;;
4309;SDS011;2168;53.576;9.980;2024-02-23T06:48:50;0.30;;;0.30;;
4309;SDS011;2168;53.576;9.980;2024-02-23T06:51:15;0.30;;;0.30;;
4309;SDS011;2168;53.576;9.980;2024-02-23T06:53:41;0.40;;;0.40;;
4309;SDS011;2168;53.576;9.980;2024-02-23T06:56:06;0.30;;;0.30;;
4309;SDS011;2168;53.576;9.980;2024-02-23T06:58:32;0.20;;;0.20;;
4309;SDS011;2168;53.576;9.980;2024-02-23T07:00:57;0.40;;;0.40;;
4309;SDS011;2168;53.576;9.980;2024-02-23T07:03:22;0.40;;;0.40;;
4309;SDS011;2168;53.576;9.980;2024-02-23T07:05:47;0.20;;;0.20;;
4309;SDS011;2168;53.576;9.980;2024-02-23T07:08:14;0.57;;;0.57;;
4309;SDS011;2168;53.576;9.980;2024-02-23T07:10:40;0.20;;;0.20;;
4309;SDS011;2168;53.576;9.980;2024-02-23T07:13:05;0.40;;;0.40;;
4309;SDS011;2168;53.576;9.980;2024-02-23T07:15:30;0.33;;;0.33;;
4309;SDS011;2168;53.576;9.980;2024-02-23T07:17:57;0.30;;;0.30;;
4309;SDS011;2168;53.576;9.980;2024-02-23T07:20:23;0.40;;;0.40;;
4309;SDS011;2168;53.576;9.980;2024-02-23T07:22:48;0.40;;;0.40;;
4309;SDS011;2168;53.576;9.980;2024-02-23T07:25:19;0.20;;;0.20;;
4309;SDS011;2168;53.576;9.980;2024-02-23T07:27:45;0.20;;;0.20;;
4309;SDS011;2168;53.576;9.980;2024-02-23T07:30:11;0.30;;;0.30;;
4309;SDS011;2168;53.576;9.980;2024-02-23T07:32:36;0.30;;;0.30;;
4309;SDS011;2168;53.576;9.980;2024-02-23T07:35:02;0.30;;;0.30;;
4309;SDS011;2168;53.576;9.980;2024-02-23T07:37:28;0.30;;;0.30;;
4309;SDS011;2168;53.576;9.980;2024-02-23T07:39:54;0.20;;;0.20;;
4309;SDS011;2168;53.576;9.980;2024-02-23T07:42:19;0.20;;;0.20;;
4309;SDS011;2168;53.576;9.980;2024-02-23T07:44:44;0.20;;;0.20;;
4309;SDS011;2168;53.576;9.980;2024-02-23T07:47:10;0.20;;;0.20;;
4309;SDS011;2168;53.576;9.980;2024-02-23T07:49:36;0.20;;;0.20;;
4309;SDS011;2168;53.576;9.980;2024-02-23T07:52:01;0.60;;;0.60;;
4309;SDS011;2168;53.576;9.980;2024-02-23T07:54:26;0.20;;;0.20;;
4309;SDS011;2168;53.576;9.980;2024-02-23T07:56:52;0.30;;;0.30;;
4309;SDS011;2168;53.576;9.980;2024-02-23T07:59:17;0.33;;;0.33;;
4309;SDS011;2168;53.576;9.980;2024-02-23T08:01:42;0.20;;;0.20;;
4309;SDS011;2168;53.576;9.980;2024-02-23T08:04:07;0.40;;;0.40;;
4309;SDS011;2168;53.576;9.980;2024-02-23T08:06:33;0.40;;;0.40;;
4309;SDS011;2168;53.576;9.980;2024-02-23T08:08:58;0.73;;;0.73;;
4309;SDS011;2168;53.576;9.980;2024-02-23T08:11:26;0.90;;;0.90;;
4309;SDS011;2168;53.576;9.980;2024-02-23T08:13:51;1.20;;;1.20;;
4309;SDS011;2168;53.576;9.980;2024-02-23T08:16:17;1.00;;;1.00;;
4309;SDS011;2168;53.576;9.980;2024-02-23T08:18:42;0.90;;;0.90;;
4309;SDS011;2168;53.576;9.980;2024-02-23T08:21:13;0.90;;;0.90;;
4309;SDS011;2168;53.576;9.980;2024-02-23T08:23:39;1.00;;;1.00;;
4309;SDS011;2168;53.576;9.980;2024-02-23T08:26:04;1.20;;;1.20;;
4309;SDS011;2168;53.576;9.980;2024-02-23T08:34:53;1.30;;;1.30;;
4309;SDS011;2168;53.576;9.980;2024-02-23T08:37:24;1.70;;;1.70;;
4309;SDS011;2168;53.576;9.980;2024-02-23T08:39:50;3.23;;;3.23;;
4309;SDS011;2168;53.576;9.980;2024-02-23T08:42:15;1.37;;;1.37;;
4309;SDS011;2168;53.576;9.980;2024-02-23T08:44:40;1.50;;;1.50;;
4309;SDS011;2168;53.576;9.980;2024-02-23T08:47:06;1.20;;;1.20;;
4309;SDS011;2168;53.576;9.980;2024-02-23T08:49:31;2.40;;;2.40;;
4309;SDS011;2168;53.576;9.980;2024-02-23T08:51:57;0.90;;;0.90;;
4309;SDS011;2168;53.576;9.980;2024-02-23T08:54:23;1.10;;;1.10;;
4309;SDS011;2168;53.576;9.980;2024-02-23T08:56:49;1.33;;;1.33;;
4309;SDS011;2168;53.576;9.980;2024-02-23T08:59:15;1.00;;;1.00;;
4309;SDS011;2168;53.576;9.980;2024-02-23T09:01:42;1.00;;;1.00;;
4309;SDS011;2168;53.576;9.980;2024-02-23T09:04:09;1.00;;;1.00;;
4309;SDS011;2168;53.576;9.980;2024-02-23T09:09:40;1.10;;;1.10;;
4309;SDS011;2168;53.576;9.980;2024-02-23T09:12:06;0.80;;;0.80;;
4309;SDS011;2168;53.576;9.980;2024-02-23T09:14:32;0.80;;;0.80;;
4309;SDS011;2168;53.576;9.980;2024-02-23T09:16:58;1.13;;;1.13;;
4309;SDS011;2168;53.576;9.980;2024-02-23T09:19:25;0.80;;;0.80;;
4309;SDS011;2168;53.576;9.980;2024-02-23T09:21:51;0.87;;;0.87;;
4309;SDS011;2168;53.576;9.980;2024-02-23T09:24:16;1.50;;;1.50;;
4309;SDS011;2168;53.576;9.980;2024-02-23T09:26:41;0.80;;;0.80;;
4309;SDS011;2168;53.576;9.980;2024-02-23T09:29:07;0.60;;;0.60;;
4309;SDS011;2168;53.576;9.980;2024-02-23T09:31:52;1.10;;;1.10;;
4309;SDS011;2168;53.576;9.980;2024-02-23T09:34:20;0.70;;;0.70;;
4309;SDS011;2168;53.576;9.980;2024-02-23T09:36:45;0.97;;;0.97;;
4309;SDS011;2168;53.576;9.980;2024-02-23T09:39:11;0.70;;;0.70;;
4309;SDS011;2168;53.576;9.980;2024-02-23T09:41:36;0.80;;;0.80;;
4309;SDS011;2168;53.576;9.980;2024-02-23T09:44:03;1.33;;;1.33;;
4309;SDS011;2168;53.576;9.980;2024-02-23T09:46:28;0.83;;;0.83;;
4309;SDS011;2168;53.576;9.980;2024-02-23T09:48:54;0.70;;;0.70;;
4309;SDS011;2168;53.576;9.980;2024-02-23T09:51:20;1.00;;;1.00;;
4309;SDS011;2168;53.576;9.980;2024-02-23T09:53:45;1.00;;;1.00;;
4309;SDS011;2168;53.576;9.980;2024-02-23T09:56:13;1.20;;;1.20;;
4309;SDS011;2168;53.576;9.980;2024-02-23T09:58:42;0.77;;;0.77;;
4309;SDS011;2168;53.576;9.980;2024-02-23T10:01:07;0.80;;;0.80;;
4309;SDS011;2168;53.576;9.980;2024-02-23T10:03:36;1.03;;;1.03;;
4309;SDS011;2168;53.576;9.980;2024-02-23T10:06:02;1.00;;;1.00;;
4309;SDS011;2168;53.576;9.980;2024-02-23T10:08:28;1.30;;;1.30;;
4309;SDS011;2168;53.576;9.980;2024-02-23T10:10:54;0.90;;;0.90;;
4309;SDS011;2168;53.576;9.980;2024-02-23T10:13:19;1.30;;;1.30;;
4309;SDS011;2168;53.576;9.980;2024-02-23T10:15:49;1.53;;;1.53;;
4309;SDS011;2168;53.576;9.980;2024-02-23T10:18:14;1.00;;;1.00;;
4309;SDS011;2168;53.576;9.980;2024-02-23T10:20:40;2.50;;;2.50;;
4309;SDS011;2168;53.576;9.980;2024-02-23T10:23:05;0.90;;;0.90;;
4309;SDS011;2168;53.576;9.980;2024-02-23T10:25:33;1.00;;;1.00;;
4309;SDS011;2168;53.576;9.980;2024-02-23T10:27:58;1.40;;;1.40;;
4309;SDS011;2168;53.576;9.980;2024-02-23T10:30:26;1.20;;;1.20;;
4309;SDS011;2168;53.576;9.980;2024-02-23T10:32:52;1.77;;;1.77;;
4309;SDS011;2168;53.576;9.980;2024-02-23T10:35:20;1.50;;;1.50;;
4309;SDS011;2168;53.576;9.980;2024-02-23T10:37:48;1.73;;;1.73;;
4309;SDS011;2168;53.576;9.980;2024-02-23T10:40:15;1.40;;;1.40;;
4309;SDS011;2168;53.576;9.980;2024-02-23T10:42:41;1.40;;;1.40;;
4309;SDS011;2168;53.576;9.980;2024-02-23T10:45:09;1.30;;;1.30;;
4309;SDS011;2168;53.576;9.980;2024-02-23T10:47:35;1.00;;;1.00;;
4309;SDS011;2168;53.576;9.980;2024-02-23T10:50:01;1.50;;;1.50;;
4309;SDS011;2168;53.576;9.980;2024-02-23T10:52:27;1.30;;;1.30;;
4309;SDS011;2168;53.576;9.980;2024-02-23T10:54:53;1.23;;;1.23;;
4309;SDS011;2168;53.576;9.980;2024-02-23T10:57:18;1.20;;;1.20;;
4309;SDS011;2168;53.576;9.980;2024-02-23T10:59:47;1.23;;;1.23;;
4309;SDS011;2168;53.576;9.980;2024-02-23T11:02:13;1.50;;;1.50;;
4309;SDS011;2168;53.576;9.980;2024-02-23T11:04:41;0.93;;;0.93;;
4309;SDS011;2168;53.576;9.980;2024-02-23T11:07:12;1.70;;;1.70;;
4309;SDS011;2168;53.576;9.980;2024-02-23T11:09:38;2.00;;;2.00;;
4309;SDS011;2168;53.576;9.980;2024-02-23T11:12:03;1.20;;;1.20;;
4309;SDS011;2168;53.576;9.980;2024-02-23T11:14:36;1.60;;;1.60;;
4309;SDS011;2168;53.576;9.980;2024-02-23T11:17:02;1.73;;;1.73;;
4309;SDS011;2168;53.576;9.980;2024-02-23T11:19:31;1.90;;;1.90;;
4309;SDS011;2168;53.576;9.980;2024-02-23T11:21:57;1.50;;;1.50;;
4309;SDS011;2168;53.576;9.980;2024-02-23T11:24:25;1.20;;;1.20;;
4309;SDS011;2168;53.576;9.980;2024-02-23T11:26:50;1.13;;;1.13;;
4309;SDS011;2168;53.576;9.980;2024-02-23T11:29:20;1.20;;;1.20;;
4309;SDS011;2168;53.576;9.980;2024-02-23T11:31:46;1.10;;;1.10;;
4309;SDS011;2168;53.576;9.980;2024-02-23T11:34:11;1.00;;;1.00;;
4309;SDS011;2168;53.576;9.980;2024-02-23T11:36:38;1.10;;;1.10;;
4309;SDS011;2168;53.576;9.980;2024-02-23T11:39:03;1.00;;;1.00;;
4309;SDS011;2168;53.576;9.980;2024-02-23T11:41:31;1.20;;;1.20;;
4309;SDS011;2168;53.576;9.980;2024-02-23T11:43:56;1.47;;;1.47;;
4309;SDS011;2168;53.576;9.980;2024-02-23T11:46:22;0.90;;;0.90;;
4309;SDS011;2168;53.576;9.980;2024-02-23T11:48:47;1.03;;;1.03;;
4309;SDS011;2168;53.576;9.980;2024-02-23T11:51:18;0.80;;;0.80;;
4309;SDS011;2168;53.576;9.980;2024-02-23T11:53:43;2.10;;;2.10;;
4309;SDS011;2168;53.576;9.980;2024-02-23T11:56:08;1.00;;;1.00;;
4309;SDS011;2168;53.576;9.980;2024-02-23T11:58:34;1.07;;;1.07;;
4309;SDS011;2168;53.576;9.980;2024-02-23T12:01:00;0.90;;;0.90;;
4309;SDS011;2168;53.576;9.980;2024-02-23T12:03:27;1.00;;;1.00;;
4309;SDS011;2168;53.576;9.980;2024-02-23T12:05:53;1.10;;;1.10;;
4309;SDS011;2168;53.576;9.980;2024-02-23T12:08:18;0.90;;;0.90;;
4309;SDS011;2168;53.576;9.980;2024-02-23T12:10:44;1.27;;;1.27;;
4309;SDS011;2168;53.576;9.980;2024-02-23T12:13:09;1.00;;;1.00;;
4309;SDS011;2168;53.576;9.980;2024-02-23T12:15:35;1.63;;;1.63;;
4309;SDS011;2168;53.576;9.980;2024-02-23T12:18:00;1.90;;;1.90;;
4309;SDS011;2168;53.576;9.980;2024-02-23T12:20:28;0.90;;;0.90;;
4309;SDS011;2168;53.576;9.980;2024-02-23T12:22:56;1.20;;;1.20;;
4309;SDS011;2168;53.576;9.980;2024-02-23T12:25:21;1.00;;;1.00;;
4309;SDS011;2168;53.576;9.980;2024-02-23T12:27:47;1.30;;;1.30;;
4309;SDS011;2168;53.576;9.980;2024-02-23T12:30:18;1.70;;;1.70;;
4309;SDS011;2168;53.576;9.980;2024-02-23T12:32:43;1.03;;;1.03;;
4309;SDS011;2168;53.576;9.980;2024-02-23T12:35:12;1.10;;;1.10;;
4309;SDS011;2168;53.576;9.980;2024-02-23T12:37:37;1.50;;;1.50;;
4309;SDS011;2168;53.576;9.980;2024-02-23T12:40:02;1.00;;;1.00;;
4309;SDS011;2168;53.576;9.980;2024-02-23T12:42:28;1.40;;;1.40;;
4309;SDS011;2168;53.576;9.980;2024-02-23T12:44:53;1.33;;;1.33;;
4309;SDS011;2168;53.576;9.980;2024-02-23T12:47:18;1.30;;;1.30;;
4309;SDS011;2168;53.576;9.980;2024-02-23T12:49:43;1.53;;;1.53;;
4309;SDS011;2168;53.576;9.980;2024-02-23T12:52:09;1.50;;;1.50;;
4309;SDS011;2168;53.576;9.980;2024-02-23T12:54:34;1.30;;;1.30;;
4309;SDS011;2168;53.576;9.980;2024-02-23T12:56:59;0.80;;;0.80;;
4309;SDS011;2168;53.576;9.980;2024-02-23T12:59:24;1.17;;;1.17;;
4309;SDS011;2168;53.576;9.980;2024-02-23T13:01:50;2.90;;;2.90;;
4309;SDS011;2168;53.576;9.980;2024-02-23T13:04:15;1.60;;;1.60;;
4309;SDS011;2168;53.576;9.980;2024-02-23T13:06:40;2.30;;;2.30;;
4309;SDS011;2168;53.576;9.980;2024-02-23T13:09:06;1.30;;;1.30;;
4309;SDS011;2168;53.576;9.980;2024-02-23T13:11:33;1.30;;;1.30;;
4309;SDS011;2168;53.576;9.980;2024-02-23T13:13:59;1.53;;;1.53;;
4309;SDS011;2168;53.576;9.980;2024-02-23T13:16:24;1.10;;;1.10;;
4309;SDS011;2168;53.576;9.980;2024-02-23T13:18:50;1.10;;;1.10;;
4309;SDS011;2168;53.576;9.980;2024-02-23T13:21:15;1.30;;;1.30;;
4309;SDS011;2168;53.576;9.980;2024-02-23T13:23:40;1.60;;;1.60;;
4309;SDS011;2168;53.576;9.980;2024-02-23T13:26:07;1.17;;;1.17;;
4309;SDS011;2168;53.576;9.980;2024-02-23T13:28:32;1.23;;;1.23;;
4309;SDS011;2168;53.576;9.980;2024-02-23T13:30:57;1.20;;;1.20;;
4309;SDS011;2168;53.576;9.980;2024-02-23T13:33:23;1.57;;;1.57;;
4309;SDS011;2168;53.576;9.980;2024-02-23T13:35:49;1.30;;;1.30;;
4309;SDS011;2168;53.576;9.980;2024-02-23T13:38:14;1.23;;;1.23;;
4309;SDS011;2168;53.576;9.980;2024-02-23T13:40:39;1.50;;;1.50;;
4309;SDS011;2168;53.576;9.980;2024-02-23T13:43:04;1.50;;;1.50;;
4309;SDS011;2168;53.576;9.980;2024-02-23T13:45:30;1.60;;;1.60;;
4309;SDS011;2168;53.576;9.980;2024-02-23T13:47:59;1.60;;;1.60;;
4309;SDS011;2168;53.576;9.980;2024-02-23T13:50:25;1.30;;;1.30;;
4309;SDS011;2168;53.576;9.980;2024-02-23T13:52:51;1.50;;;1.50;;
4309;SDS011;2168;53.576;9.980;2024-02-23T13:55:17;1.20;;;1.20;;
4309;SDS011;2168;53.576;9.980;2024-02-23T13:57:42;1.20;;;1.20;;
4309;SDS011;2168;53.576;9.980;2024-02-23T14:00:08;2.00;;;2.00;;
4309;SDS011;2168;53.576;9.980;2024-02-23T14:02:37;1.43;;;1.43;;
4309;SDS011;2168;53.576;9.980;2024-02-23T14:05:05;1.27;;;1.27;;
4309;SDS011;2168;53.576;9.980;2024-02-23T14:07:32;1.17;;;1.17;;
4309;SDS011;2168;53.576;9.980;2024-02-23T14:09:57;1.50;;;1.50;;
4309;SDS011;2168;53.576;9.980;2024-02-23T14:12:41;1.10;;;1.10;;
4309;SDS011;2168;53.576;9.980;2024-02-23T14:15:06;1.10;;;1.10;;
4309;SDS011;2168;53.576;9.980;2024-02-23T14:17:32;1.20;;;1.20;;
4309;SDS011;2168;53.576;9.980;2024-02-23T14:19:58;1.50;;;1.50;;
4309;SDS011;2168;53.576;9.980;2024-02-23T14:22:23;1.40;;;1.40;;
4309;SDS011;2168;53.576;9.980;2024-02-23T14:24:48;1.40;;;1.40;;
4309;SDS011;2168;53.576;9.980;2024-02-23T14:27:14;1.40;;;1.40;;
4309;SDS011;2168;53.576;9.980;2024-02-23T14:29:39;1.20;;;1.20;;
4309;SDS011;2168;53.576;9.980;2024-02-23T14:32:04;1.60;;;1.60;;
4309;SDS011;2168;53.576;9.980;2024-02-23T14:34:29;1.40;;;1.40;;
4309;SDS011;2168;53.576;9.980;2024-02-23T14:36:55;1.33;;;1.33;;
4309;SDS011;2168;53.576;9.980;2024-02-23T14:39:20;1.43;;;1.43;;
4309;SDS011;2168;53.576;9.980;2024-02-23T14:41:46;2.07;;;2.07;;
4309;SDS011;2168;53.576;9.980;2024-02-23T14:44:11;1.70;;;1.70;;
4309;SDS011;2168;53.576;9.980;2024-02-23T14:46:36;1.40;;;1.40;;
4309;SDS011;2168;53.576;9.980;2024-02-23T14:49:02;1.40;;;1.40;;
4309;SDS011;2168;53.576;9.980;2024-02-23T14:51:27;1.43;;;1.43;;
4309;SDS011;2168;53.576;9.980;2024-02-23T14:53:52;1.37;;;1.37;;
4309;SDS011;2168;53.576;9.980;2024-02-23T14:56:18;1.67;;;1.67;;
4309;SDS011;2168;53.576;9.980;2024-02-23T14:58:43;1.30;;;1.30;;
4309;SDS011;2168;53.576;9.980;2024-02-23T15:01:08;1.90;;;1.90;;
4309;SDS011;2168;53.576;9.980;2024-02-23T15:03:33;1.77;;;1.77;;
4309;SDS011;2168;53.576;9.980;2024-02-23T15:05:59;1.77;;;1.77;;
4309;SDS011;2168;53.576;9.980;2024-02-23T15:08:26;1.43;;;1.43;;
4309;SDS011;2168;53.576;9.980;2024-02-23T15:10:51;1.80;;;1.80;;
4309;SDS011;2168;53.576;9.980;2024-02-23T15:13:17;1.87;;;1.87;;
4309;SDS011;2168;53.576;9.980;2024-02-23T15:15:42;1.60;;;1.60;;